KLEW

Auburn / Lewiston Municipal Airport

Auburn/Lewiston, Maine, USA
METAR KLEW 191056Z AUTO 35004KT 10SM CLR M07/M13 A3001 RMK AO2 SLP180 T10721128 FZRANO
Observed Flight Rules
Dec-19 @ 10:56 UTC (52 minutes ago) Visual Flight Rules
Wind Visibility Clouds
350° at 4 knots 10 miles
  • Clear skies
Temperatures Readings
Current -7°C / 19°F
Dewpoint -13°C / 9°F
Humidity 63%
Altimeter 30.01" Hg
Pressure 1018 hPa
Elevation 88
METAR KLEW 191056Z AUTO 35004KT 10SM CLR M07/M13 A3001 RMK AO2 SLP180 T10721128 FZRANO
Observed Flight Rules
Dec-19 @ 10:56 UTC
(52 minutes ago)
VFR
Wind Visibility
350° at 4 knots 10 miles
Clouds
  • Clear skies
Temperature Dewpoint
-7°C / 19°F -13°C / 9°F
Humidity Altimeter Pressure
63% 30.01" Hg 1018 hPa